sensor_id;sensor_type;location;lat;lon;timestamp;P1;durP1;ratioP1;P2;durP2;ratioP2
64684;SDS011;51109;47.414;18.954;2023-07-31T00:01:47;8.13;;;5.75;;
64684;SDS011;51109;47.414;18.954;2023-07-31T00:04:13;7.45;;;5.32;;
64684;SDS011;51109;47.414;18.954;2023-07-31T00:06:39;6.93;;;5.85;;
64684;SDS011;51109;47.414;18.954;2023-07-31T00:09:06;7.20;;;5.75;;
64684;SDS011;51109;47.414;18.954;2023-07-31T00:11:32;7.78;;;6.15;;
64684;SDS011;51109;47.414;18.954;2023-07-31T00:13:58;7.75;;;5.60;;
64684;SDS011;51109;47.414;18.954;2023-07-31T00:16:24;6.78;;;6.18;;
64684;SDS011;51109;47.414;18.954;2023-07-31T00:18:50;6.70;;;6.00;;
64684;SDS011;51109;47.414;18.954;2023-07-31T00:21:16;6.40;;;5.80;;
64684;SDS011;51109;47.414;18.954;2023-07-31T00:23:41;7.57;;;6.63;;
64684;SDS011;51109;47.414;18.954;2023-07-31T00:26:07;7.80;;;6.15;;
64684;SDS011;51109;47.414;18.954;2023-07-31T00:28:33;7.47;;;6.18;;
64684;SDS011;51109;47.414;18.954;2023-07-31T00:30:59;7.43;;;6.22;;
64684;SDS011;51109;47.414;18.954;2023-07-31T00:33:25;8.30;;;6.18;;
64684;SDS011;51109;47.414;18.954;2023-07-31T00:35:51;6.43;;;5.80;;
64684;SDS011;51109;47.414;18.954;2023-07-31T00:38:17;6.40;;;5.63;;
64684;SDS011;51109;47.414;18.954;2023-07-31T00:40:43;7.50;;;6.30;;
64684;SDS011;51109;47.414;18.954;2023-07-31T00:43:09;6.80;;;6.10;;
64684;SDS011;51109;47.414;18.954;2023-07-31T00:45:35;6.85;;;6.15;;
64684;SDS011;51109;47.414;18.954;2023-07-31T00:48:01;7.75;;;6.78;;
64684;SDS011;51109;47.414;18.954;2023-07-31T00:50:27;7.53;;;6.68;;
64684;SDS011;51109;47.414;18.954;2023-07-31T00:52:54;7.95;;;6.93;;
64684;SDS011;51109;47.414;18.954;2023-07-31T00:55:20;7.57;;;6.65;;
64684;SDS011;51109;47.414;18.954;2023-07-31T00:57:47;7.30;;;6.57;;
64684;SDS011;51109;47.414;18.954;2023-07-31T01:00:14;7.72;;;6.88;;
64684;SDS011;51109;47.414;18.954;2023-07-31T01:02:40;6.55;;;5.90;;
64684;SDS011;51109;47.414;18.954;2023-07-31T01:05:06;6.72;;;6.07;;
64684;SDS011;51109;47.414;18.954;2023-07-31T01:13:05;6.63;;;5.90;;
64684;SDS011;51109;47.414;18.954;2023-07-31T01:15:31;6.13;;;5.10;;
64684;SDS011;51109;47.414;18.954;2023-07-31T01:17:57;6.10;;;4.88;;
64684;SDS011;51109;47.414;18.954;2023-07-31T01:20:23;6.97;;;5.32;;
64684;SDS011;51109;47.414;18.954;2023-07-31T01:28:25;6.03;;;5.43;;
64684;SDS011;51109;47.414;18.954;2023-07-31T01:31:14;10.63;;;5.43;;
64684;SDS011;51109;47.414;18.954;2023-07-31T01:33:45;6.82;;;6.15;;
64684;SDS011;51109;47.414;18.954;2023-07-31T01:36:12;7.50;;;5.75;;
64684;SDS011;51109;47.414;18.954;2023-07-31T01:38:38;6.28;;;5.68;;
64684;SDS011;51109;47.414;18.954;2023-07-31T01:41:04;6.45;;;5.70;;
64684;SDS011;51109;47.414;18.954;2023-07-31T01:43:30;6.10;;;5.20;;
64684;SDS011;51109;47.414;18.954;2023-07-31T01:45:56;7.68;;;5.10;;
64684;SDS011;51109;47.414;18.954;2023-07-31T01:48:22;5.55;;;4.75;;
64684;SDS011;51109;47.414;18.954;2023-07-31T01:50:48;6.97;;;5.07;;
64684;SDS011;51109;47.414;18.954;2023-07-31T01:53:14;5.30;;;4.53;;
64684;SDS011;51109;47.414;18.954;2023-07-31T01:55:40;4.47;;;4.05;;
64684;SDS011;51109;47.414;18.954;2023-07-31T01:58:06;6.63;;;4.47;;
64684;SDS011;51109;47.414;18.954;2023-07-31T02:00:32;6.80;;;4.25;;
64684;SDS011;51109;47.414;18.954;2023-07-31T02:02:59;4.38;;;3.97;;
64684;SDS011;51109;47.414;18.954;2023-07-31T02:05:25;6.55;;;4.10;;
64684;SDS011;51109;47.414;18.954;2023-07-31T02:07:51;7.43;;;3.70;;
64684;SDS011;51109;47.414;18.954;2023-07-31T02:10:17;3.78;;;3.42;;
64684;SDS011;51109;47.414;18.954;2023-07-31T02:12:43;3.55;;;3.25;;
64684;SDS011;51109;47.414;18.954;2023-07-31T02:15:09;5.22;;;4.18;;
64684;SDS011;51109;47.414;18.954;2023-07-31T02:17:35;3.97;;;3.15;;
64684;SDS011;51109;47.414;18.954;2023-07-31T02:20:01;6.82;;;3.08;;
64684;SDS011;51109;47.414;18.954;2023-07-31T02:22:27;6.88;;;3.67;;
64684;SDS011;51109;47.414;18.954;2023-07-31T02:24:53;3.45;;;3.10;;
64684;SDS011;51109;47.414;18.954;2023-07-31T02:27:18;3.30;;;3.00;;
64684;SDS011;51109;47.414;18.954;2023-07-31T02:29:45;4.15;;;3.20;;
64684;SDS011;51109;47.414;18.954;2023-07-31T02:32:10;3.53;;;3.13;;
64684;SDS011;51109;47.414;18.954;2023-07-31T02:34:36;3.35;;;3.05;;
64684;SDS011;51109;47.414;18.954;2023-07-31T02:37:02;4.40;;;3.22;;
64684;SDS011;51109;47.414;18.954;2023-07-31T02:39:28;4.72;;;3.00;;
64684;SDS011;51109;47.414;18.954;2023-07-31T02:41:54;3.85;;;3.15;;
64684;SDS011;51109;47.414;18.954;2023-07-31T02:44:20;7.40;;;3.15;;
64684;SDS011;51109;47.414;18.954;2023-07-31T02:46:46;3.88;;;2.90;;
64684;SDS011;51109;47.414;18.954;2023-07-31T02:49:12;2.95;;;2.45;;
64684;SDS011;51109;47.414;18.954;2023-07-31T02:51:38;6.28;;;3.35;;
64684;SDS011;51109;47.414;18.954;2023-07-31T02:54:04;5.43;;;3.00;;
64684;SDS011;51109;47.414;18.954;2023-07-31T02:56:30;4.95;;;3.00;;
64684;SDS011;51109;47.414;18.954;2023-07-31T02:58:56;3.72;;;3.25;;
64684;SDS011;51109;47.414;18.954;2023-07-31T03:04:16;3.88;;;3.10;;
64684;SDS011;51109;47.414;18.954;2023-07-31T03:06:42;3.47;;;3.10;;
64684;SDS011;51109;47.414;18.954;2023-07-31T03:09:08;5.35;;;2.72;;
64684;SDS011;51109;47.414;18.954;2023-07-31T03:11:34;4.57;;;2.83;;
64684;SDS011;51109;47.414;18.954;2023-07-31T03:14:00;3.33;;;2.78;;
64684;SDS011;51109;47.414;18.954;2023-07-31T03:16:26;3.75;;;2.97;;
64684;SDS011;51109;47.414;18.954;2023-07-31T03:18:52;4.05;;;3.45;;
64684;SDS011;51109;47.414;18.954;2023-07-31T03:21:18;5.03;;;2.88;;
64684;SDS011;51109;47.414;18.954;2023-07-31T03:23:43;4.57;;;2.90;;
64684;SDS011;51109;47.414;18.954;2023-07-31T03:26:09;3.83;;;2.88;;
64684;SDS011;51109;47.414;18.954;2023-07-31T03:28:36;3.97;;;2.70;;
64684;SDS011;51109;47.414;18.954;2023-07-31T03:31:02;3.20;;;2.70;;
64684;SDS011;51109;47.414;18.954;2023-07-31T03:33:28;5.32;;;2.55;;
64684;SDS011;51109;47.414;18.954;2023-07-31T03:35:54;4.13;;;2.70;;
64684;SDS011;51109;47.414;18.954;2023-07-31T03:38:19;4.65;;;2.80;;
64684;SDS011;51109;47.414;18.954;2023-07-31T03:40:45;3.20;;;2.50;;
64684;SDS011;51109;47.414;18.954;2023-07-31T03:43:12;2.60;;;2.40;;
64684;SDS011;51109;47.414;18.954;2023-07-31T03:45:38;2.70;;;2.30;;
64684;SDS011;51109;47.414;18.954;2023-07-31T03:48:04;3.33;;;2.45;;
64684;SDS011;51109;47.414;18.954;2023-07-31T03:50:30;3.08;;;2.70;;
64684;SDS011;51109;47.414;18.954;2023-07-31T03:52:56;3.15;;;2.85;;
64684;SDS011;51109;47.414;18.954;2023-07-31T03:55:22;3.42;;;3.13;;
64684;SDS011;51109;47.414;18.954;2023-07-31T03:57:48;4.15;;;2.47;;
64684;SDS011;51109;47.414;18.954;2023-07-31T04:00:14;6.60;;;3.13;;
64684;SDS011;51109;47.414;18.954;2023-07-31T04:02:40;3.22;;;2.70;;
64684;SDS011;51109;47.414;18.954;2023-07-31T04:05:06;5.25;;;2.80;;
64684;SDS011;51109;47.414;18.954;2023-07-31T04:07:32;4.28;;;2.60;;
64684;SDS011;51109;47.414;18.954;2023-07-31T04:09:59;4.18;;;2.85;;
64684;SDS011;51109;47.414;18.954;2023-07-31T04:12:25;4.93;;;2.80;;
64684;SDS011;51109;47.414;18.954;2023-07-31T04:14:51;3.92;;;2.78;;
64684;SDS011;51109;47.414;18.954;2023-07-31T04:17:20;6.10;;;2.70;;
64684;SDS011;51109;47.414;18.954;2023-07-31T04:19:45;2.80;;;2.60;;
64684;SDS011;51109;47.414;18.954;2023-07-31T04:22:11;5.25;;;3.13;;
64684;SDS011;51109;47.414;18.954;2023-07-31T04:24:37;3.00;;;2.70;;
64684;SDS011;51109;47.414;18.954;2023-07-31T04:27:03;3.20;;;2.80;;
64684;SDS011;51109;47.414;18.954;2023-07-31T04:29:29;4.68;;;2.28;;
64684;SDS011;51109;47.414;18.954;2023-07-31T04:31:55;6.07;;;3.15;;
64684;SDS011;51109;47.414;18.954;2023-07-31T04:34:21;5.28;;;2.60;;
64684;SDS011;51109;47.414;18.954;2023-07-31T04:36:47;2.70;;;2.50;;
64684;SDS011;51109;47.414;18.954;2023-07-31T04:39:13;3.30;;;2.33;;
64684;SDS011;51109;47.414;18.954;2023-07-31T04:41:39;3.70;;;2.65;;
64684;SDS011;51109;47.414;18.954;2023-07-31T04:44:05;3.53;;;3.08;;
64684;SDS011;51109;47.414;18.954;2023-07-31T04:46:30;6.13;;;2.92;;
64684;SDS011;51109;47.414;18.954;2023-07-31T04:48:56;5.57;;;2.50;;
64684;SDS011;51109;47.414;18.954;2023-07-31T04:51:22;2.63;;;2.40;;
64684;SDS011;51109;47.414;18.954;2023-07-31T04:53:49;4.40;;;2.30;;
64684;SDS011;51109;47.414;18.954;2023-07-31T04:56:15;4.53;;;2.63;;
64684;SDS011;51109;47.414;18.954;2023-07-31T04:58:41;5.72;;;2.95;;
64684;SDS011;51109;47.414;18.954;2023-07-31T05:01:07;6.53;;;2.55;;
64684;SDS011;51109;47.414;18.954;2023-07-31T05:03:33;2.97;;;2.17;;
64684;SDS011;51109;47.414;18.954;2023-07-31T05:05:59;4.05;;;2.47;;
64684;SDS011;51109;47.414;18.954;2023-07-31T05:08:25;2.38;;;2.00;;
64684;SDS011;51109;47.414;18.954;2023-07-31T05:10:51;2.33;;;2.13;;
64684;SDS011;51109;47.414;18.954;2023-07-31T05:13:17;2.85;;;1.80;;
64684;SDS011;51109;47.414;18.954;2023-07-31T05:15:43;5.10;;;2.08;;
64684;SDS011;51109;47.414;18.954;2023-07-31T05:18:08;5.07;;;2.17;;
64684;SDS011;51109;47.414;18.954;2023-07-31T05:20:34;4.55;;;1.90;;
64684;SDS011;51109;47.414;18.954;2023-07-31T05:23:00;3.40;;;1.92;;
64684;SDS011;51109;47.414;18.954;2023-07-31T05:25:26;3.58;;;2.10;;
64684;SDS011;51109;47.414;18.954;2023-07-31T05:27:52;4.20;;;1.85;;
64684;SDS011;51109;47.414;18.954;2023-07-31T05:30:18;3.00;;;2.05;;
64684;SDS011;51109;47.414;18.954;2023-07-31T05:32:44;3.05;;;1.83;;
64684;SDS011;51109;47.414;18.954;2023-07-31T05:35:10;4.13;;;2.05;;
64684;SDS011;51109;47.414;18.954;2023-07-31T05:37:36;3.60;;;1.83;;
64684;SDS011;51109;47.414;18.954;2023-07-31T05:40:02;3.22;;;1.88;;
64684;SDS011;51109;47.414;18.954;2023-07-31T05:42:29;1.90;;;1.80;;
64684;SDS011;51109;47.414;18.954;2023-07-31T05:44:55;3.80;;;1.73;;
64684;SDS011;51109;47.414;18.954;2023-07-31T05:47:21;5.82;;;2.25;;
64684;SDS011;51109;47.414;18.954;2023-07-31T05:49:47;2.97;;;1.90;;
64684;SDS011;51109;47.414;18.954;2023-07-31T05:52:14;3.45;;;1.75;;
64684;SDS011;51109;47.414;18.954;2023-07-31T05:54:41;2.83;;;1.85;;
64684;SDS011;51109;47.414;18.954;2023-07-31T05:57:07;4.07;;;1.70;;
64684;SDS011;51109;47.414;18.954;2023-07-31T05:59:33;4.55;;;1.48;;
64684;SDS011;51109;47.414;18.954;2023-07-31T06:01:59;7.47;;;1.85;;
64684;SDS011;51109;47.414;18.954;2023-07-31T06:04:25;3.35;;;1.73;;
64684;SDS011;51109;47.414;18.954;2023-07-31T06:06:51;1.92;;;1.38;;
64684;SDS011;51109;47.414;18.954;2023-07-31T06:09:17;6.18;;;1.55;;
64684;SDS011;51109;47.414;18.954;2023-07-31T06:11:43;2.38;;;1.77;;
64684;SDS011;51109;47.414;18.954;2023-07-31T06:14:09;3.80;;;1.52;;
64684;SDS011;51109;47.414;18.954;2023-07-31T06:16:35;2.72;;;1.70;;
64684;SDS011;51109;47.414;18.954;2023-07-31T06:19:01;3.55;;;1.70;;
64684;SDS011;51109;47.414;18.954;2023-07-31T06:21:27;4.40;;;1.65;;
64684;SDS011;51109;47.414;18.954;2023-07-31T06:23:53;1.95;;;1.70;;
64684;SDS011;51109;47.414;18.954;2023-07-31T06:26:19;3.70;;;1.85;;
64684;SDS011;51109;47.414;18.954;2023-07-31T06:28:45;5.05;;;1.67;;
64684;SDS011;51109;47.414;18.954;2023-07-31T06:31:11;5.15;;;2.17;;
64684;SDS011;51109;47.414;18.954;2023-07-31T06:33:38;4.10;;;1.80;;
64684;SDS011;51109;47.414;18.954;2023-07-31T06:36:04;2.75;;;1.83;;
64684;SDS011;51109;47.414;18.954;2023-07-31T06:38:30;1.90;;;1.50;;
64684;SDS011;51109;47.414;18.954;2023-07-31T06:40:55;2.10;;;1.60;;
64684;SDS011;51109;47.414;18.954;2023-07-31T06:43:21;2.88;;;1.40;;
64684;SDS011;51109;47.414;18.954;2023-07-31T06:45:47;2.83;;;1.70;;
64684;SDS011;51109;47.414;18.954;2023-07-31T06:48:16;3.63;;;1.73;;
64684;SDS011;51109;47.414;18.954;2023-07-31T06:50:42;2.05;;;1.85;;
64684;SDS011;51109;47.414;18.954;2023-07-31T06:53:08;4.30;;;1.77;;
64684;SDS011;51109;47.414;18.954;2023-07-31T06:55:34;6.72;;;1.60;;
64684;SDS011;51109;47.414;18.954;2023-07-31T06:58:00;2.05;;;1.70;;
64684;SDS011;51109;47.414;18.954;2023-07-31T07:00:26;1.77;;;1.60;;
64684;SDS011;51109;47.414;18.954;2023-07-31T07:02:52;2.65;;;1.80;;
64684;SDS011;51109;47.414;18.954;2023-07-31T07:05:18;3.05;;;1.75;;
64684;SDS011;51109;47.414;18.954;2023-07-31T07:07:45;2.78;;;1.75;;
64684;SDS011;51109;47.414;18.954;2023-07-31T07:10:11;7.75;;;1.63;;
64684;SDS011;51109;47.414;18.954;2023-07-31T07:12:37;2.00;;;1.50;;
64684;SDS011;51109;47.414;18.954;2023-07-31T07:15:03;8.18;;;3.15;;
64684;SDS011;51109;47.414;18.954;2023-07-31T07:17:30;5.50;;;1.92;;
64684;SDS011;51109;47.414;18.954;2023-07-31T07:19:59;2.85;;;1.50;;
64684;SDS011;51109;47.414;18.954;2023-07-31T07:22:26;4.22;;;1.92;;
64684;SDS011;51109;47.414;18.954;2023-07-31T07:24:52;2.70;;;1.70;;
64684;SDS011;51109;47.414;18.954;2023-07-31T07:27:19;2.65;;;1.70;;
64684;SDS011;51109;47.414;18.954;2023-07-31T07:29:45;2.95;;;1.65;;
64684;SDS011;51109;47.414;18.954;2023-07-31T07:32:12;2.70;;;1.90;;
64684;SDS011;51109;47.414;18.954;2023-07-31T07:34:38;2.50;;;1.85;;
64684;SDS011;51109;47.414;18.954;2023-07-31T07:37:04;3.13;;;2.17;;
64684;SDS011;51109;47.414;18.954;2023-07-31T07:39:30;4.40;;;1.90;;
64684;SDS011;51109;47.414;18.954;2023-07-31T07:41:56;4.72;;;1.85;;
64684;SDS011;51109;47.414;18.954;2023-07-31T07:44:22;6.85;;;1.63;;
64684;SDS011;51109;47.414;18.954;2023-07-31T07:46:48;8.43;;;1.92;;
64684;SDS011;51109;47.414;18.954;2023-07-31T07:49:14;2.47;;;1.63;;
64684;SDS011;51109;47.414;18.954;2023-07-31T07:51:40;5.78;;;2.00;;
64684;SDS011;51109;47.414;18.954;2023-07-31T07:54:06;2.78;;;1.65;;
64684;SDS011;51109;47.414;18.954;2023-07-31T07:56:32;1.92;;;1.63;;
64684;SDS011;51109;47.414;18.954;2023-07-31T07:58:58;2.90;;;1.42;;
64684;SDS011;51109;47.414;18.954;2023-07-31T08:01:24;3.10;;;1.50;;
64684;SDS011;51109;47.414;18.954;2023-07-31T08:03:50;1.83;;;1.58;;
64684;SDS011;51109;47.414;18.954;2023-07-31T08:06:16;1.98;;;1.67;;
64684;SDS011;51109;47.414;18.954;2023-07-31T08:08:42;5.38;;;1.80;;
64684;SDS011;51109;47.414;18.954;2023-07-31T08:11:08;5.55;;;1.63;;
64684;SDS011;51109;47.414;18.954;2023-07-31T08:13:34;3.83;;;1.65;;
64684;SDS011;51109;47.414;18.954;2023-07-31T08:16:03;2.42;;;1.48;;
64684;SDS011;51109;47.414;18.954;2023-07-31T08:18:30;2.28;;;1.52;;
64684;SDS011;51109;47.414;18.954;2023-07-31T08:20:56;2.50;;;1.67;;
64684;SDS011;51109;47.414;18.954;2023-07-31T08:23:22;2.00;;;1.55;;
64684;SDS011;51109;47.414;18.954;2023-07-31T08:25:48;3.80;;;1.35;;
64684;SDS011;51109;47.414;18.954;2023-07-31T08:28:16;4.30;;;1.42;;
64684;SDS011;51109;47.414;18.954;2023-07-31T08:30:42;4.80;;;1.40;;
64684;SDS011;51109;47.414;18.954;2023-07-31T08:33:08;2.60;;;1.60;;
64684;SDS011;51109;47.414;18.954;2023-07-31T08:35:34;3.15;;;1.52;;
64684;SDS011;51109;47.414;18.954;2023-07-31T08:38:00;2.63;;;1.60;;
64684;SDS011;51109;47.414;18.954;2023-07-31T08:40:26;3.65;;;1.48;;
64684;SDS011;51109;47.414;18.954;2023-07-31T08:42:54;1.88;;;1.58;;
64684;SDS011;51109;47.414;18.954;2023-07-31T08:45:27;4.32;;;1.90;;
64684;SDS011;51109;47.414;18.954;2023-07-31T08:47:54;4.70;;;1.60;;
64684;SDS011;51109;47.414;18.954;2023-07-31T08:50:22;2.13;;;1.77;;
64684;SDS011;51109;47.414;18.954;2023-07-31T08:52:50;3.20;;;1.63;;
64684;SDS011;51109;47.414;18.954;2023-07-31T08:55:17;2.97;;;1.50;;
64684;SDS011;51109;47.414;18.954;2023-07-31T08:57:48;4.53;;;1.70;;
64684;SDS011;51109;47.414;18.954;2023-07-31T09:00:17;1.92;;;1.50;;
64684;SDS011;51109;47.414;18.954;2023-07-31T09:02:52;4.43;;;1.95;;
64684;SDS011;51109;47.414;18.954;2023-07-31T09:05:33;3.38;;;2.03;;
64684;SDS011;51109;47.414;18.954;2023-07-31T09:08:02;3.20;;;1.42;;
64684;SDS011;51109;47.414;18.954;2023-07-31T09:10:30;3.38;;;1.67;;
64684;SDS011;51109;47.414;18.954;2023-07-31T09:12:56;5.45;;;1.60;;
64684;SDS011;51109;47.414;18.954;2023-07-31T09:15:23;3.78;;;1.50;;
64684;SDS011;51109;47.414;18.954;2023-07-31T09:17:54;2.88;;;1.42;;
64684;SDS011;51109;47.414;18.954;2023-07-31T09:20:26;4.35;;;1.73;;
64684;SDS011;51109;47.414;18.954;2023-07-31T09:22:52;4.43;;;1.50;;
64684;SDS011;51109;47.414;18.954;2023-07-31T09:25:19;3.90;;;1.60;;
64684;SDS011;51109;47.414;18.954;2023-07-31T09:27:47;3.80;;;2.35;;
64684;SDS011;51109;47.414;18.954;2023-07-31T09:30:18;3.88;;;1.83;;
64684;SDS011;51109;47.414;18.954;2023-07-31T09:32:44;4.05;;;1.30;;
64684;SDS011;51109;47.414;18.954;2023-07-31T09:35:21;3.85;;;1.40;;
64684;SDS011;51109;47.414;18.954;2023-07-31T09:37:55;3.17;;;1.90;;
64684;SDS011;51109;47.414;18.954;2023-07-31T09:40:32;5.22;;;1.65;;
64684;SDS011;51109;47.414;18.954;2023-07-31T09:43:00;3.85;;;1.60;;
64684;SDS011;51109;47.414;18.954;2023-07-31T09:45:27;4.05;;;1.60;;
64684;SDS011;51109;47.414;18.954;2023-07-31T09:47:54;6.80;;;1.67;;
64684;SDS011;51109;47.414;18.954;2023-07-31T09:50:22;4.97;;;1.35;;
64684;SDS011;51109;47.414;18.954;2023-07-31T09:52:49;5.93;;;2.10;;
64684;SDS011;51109;47.414;18.954;2023-07-31T09:55:16;2.70;;;1.58;;
64684;SDS011;51109;47.414;18.954;2023-07-31T09:57:43;3.85;;;1.40;;
64684;SDS011;51109;47.414;18.954;2023-07-31T10:00:11;4.55;;;2.25;;
64684;SDS011;51109;47.414;18.954;2023-07-31T10:02:39;6.35;;;1.55;;
64684;SDS011;51109;47.414;18.954;2023-07-31T10:05:05;2.67;;;1.50;;
64684;SDS011;51109;47.414;18.954;2023-07-31T10:07:38;2.85;;;1.58;;
64684;SDS011;51109;47.414;18.954;2023-07-31T10:10:07;2.55;;;1.42;;
64684;SDS011;51109;47.414;18.954;2023-07-31T10:12:36;3.28;;;1.30;;
64684;SDS011;51109;47.414;18.954;2023-07-31T10:15:03;2.58;;;1.55;;
64684;SDS011;51109;47.414;18.954;2023-07-31T10:17:30;5.00;;;1.40;;
64684;SDS011;51109;47.414;18.954;2023-07-31T10:19:59;2.38;;;1.48;;
64684;SDS011;51109;47.414;18.954;2023-07-31T10:22:28;4.95;;;1.40;;
64684;SDS011;51109;47.414;18.954;2023-07-31T10:24:55;5.43;;;1.42;;
64684;SDS011;51109;47.414;18.954;2023-07-31T10:27:24;5.00;;;1.55;;
64684;SDS011;51109;47.414;18.954;2023-07-31T10:29:50;2.70;;;1.40;;
64684;SDS011;51109;47.414;18.954;2023-07-31T10:32:19;2.97;;;1.20;;
64684;SDS011;51109;47.414;18.954;2023-07-31T10:34:46;2.08;;;1.35;;
64684;SDS011;51109;47.414;18.954;2023-07-31T10:39:57;6.07;;;1.80;;
64684;SDS011;51109;47.414;18.954;2023-07-31T10:42:29;3.03;;;1.23;;
64684;SDS011;51109;47.414;18.954;2023-07-31T10:44:57;3.08;;;1.50;;
64684;SDS011;51109;47.414;18.954;2023-07-31T10:47:24;3.30;;;1.58;;
64684;SDS011;51109;47.414;18.954;2023-07-31T10:49:50;4.70;;;1.63;;
64684;SDS011;51109;47.414;18.954;2023-07-31T10:52:20;4.13;;;2.13;;
64684;SDS011;51109;47.414;18.954;2023-07-31T10:57:41;5.93;;;3.33;;
64684;SDS011;51109;47.414;18.954;2023-07-31T11:00:28;3.60;;;1.70;;
64684;SDS011;51109;47.414;18.954;2023-07-31T11:05:51;2.47;;;1.33;;
64684;SDS011;51109;47.414;18.954;2023-07-31T11:11:14;2.88;;;1.30;;
64684;SDS011;51109;47.414;18.954;2023-07-31T11:13:42;3.50;;;1.50;;
64684;SDS011;51109;47.414;18.954;2023-07-31T11:16:14;2.95;;;1.17;;
64684;SDS011;51109;47.414;18.954;2023-07-31T11:18:42;1.33;;;1.10;;
64684;SDS011;51109;47.414;18.954;2023-07-31T11:21:16;3.67;;;1.50;;
64684;SDS011;51109;47.414;18.954;2023-07-31T11:23:47;2.35;;;1.20;;
64684;SDS011;51109;47.414;18.954;2023-07-31T11:26:14;3.25;;;1.15;;
64684;SDS011;51109;47.414;18.954;2023-07-31T11:28:41;4.50;;;1.60;;
64684;SDS011;51109;47.414;18.954;2023-07-31T11:31:10;2.30;;;1.23;;
64684;SDS011;51109;47.414;18.954;2023-07-31T11:33:36;1.55;;;1.40;;
64684;SDS011;51109;47.414;18.954;2023-07-31T11:36:02;2.63;;;1.38;;
64684;SDS011;51109;47.414;18.954;2023-07-31T11:38:30;2.17;;;1.40;;
64684;SDS011;51109;47.414;18.954;2023-07-31T11:40:58;3.90;;;1.40;;
64684;SDS011;51109;47.414;18.954;2023-07-31T11:43:26;4.97;;;1.50;;
64684;SDS011;51109;47.414;18.954;2023-07-31T11:45:53;6.25;;;1.70;;
64684;SDS011;51109;47.414;18.954;2023-07-31T11:48:31;3.55;;;1.70;;
64684;SDS011;51109;47.414;18.954;2023-07-31T11:50:59;3.70;;;1.10;;
64684;SDS011;51109;47.414;18.954;2023-07-31T11:56:02;2.65;;;1.58;;
64684;SDS011;51109;47.414;18.954;2023-07-31T11:58:32;3.28;;;1.33;;
64684;SDS011;51109;47.414;18.954;2023-07-31T12:01:00;2.83;;;1.60;;
64684;SDS011;51109;47.414;18.954;2023-07-31T12:03:27;2.95;;;1.35;;
64684;SDS011;51109;47.414;18.954;2023-07-31T12:05:53;1.60;;;1.33;;
64684;SDS011;51109;47.414;18.954;2023-07-31T12:08:23;3.65;;;1.27;;
64684;SDS011;51109;47.414;18.954;2023-07-31T12:10:50;3.30;;;1.38;;
64684;SDS011;51109;47.414;18.954;2023-07-31T12:13:20;1.70;;;1.40;;
64684;SDS011;51109;47.414;18.954;2023-07-31T12:15:54;3.40;;;1.40;;
64684;SDS011;51109;47.414;18.954;2023-07-31T12:18:23;2.22;;;1.50;;
64684;SDS011;51109;47.414;18.954;2023-07-31T12:20:57;3.53;;;1.30;;
64684;SDS011;51109;47.414;18.954;2023-07-31T12:23:25;1.73;;;1.20;;
64684;SDS011;51109;47.414;18.954;2023-07-31T12:28:30;3.63;;;1.77;;
64684;SDS011;51109;47.414;18.954;2023-07-31T12:31:10;4.03;;;1.33;;
64684;SDS011;51109;47.414;18.954;2023-07-31T12:33:47;4.57;;;1.70;;
64684;SDS011;51109;47.414;18.954;2023-07-31T12:36:15;2.63;;;1.42;;
64684;SDS011;51109;47.414;18.954;2023-07-31T12:38:51;3.42;;;1.30;;
64684;SDS011;51109;47.414;18.954;2023-07-31T12:41:17;2.70;;;1.40;;
64684;SDS011;51109;47.414;18.954;2023-07-31T12:43:44;1.92;;;1.27;;
64684;SDS011;51109;47.414;18.954;2023-07-31T12:46:11;4.07;;;1.35;;
64684;SDS011;51109;47.414;18.954;2023-07-31T12:48:38;3.15;;;1.60;;
64684;SDS011;51109;47.414;18.954;2023-07-31T12:51:04;5.78;;;1.38;;
64684;SDS011;51109;47.414;18.954;2023-07-31T12:53:32;2.97;;;1.70;;
64684;SDS011;51109;47.414;18.954;2023-07-31T12:55:58;4.30;;;1.70;;
64684;SDS011;51109;47.414;18.954;2023-07-31T12:58:24;4.82;;;2.03;;
64684;SDS011;51109;47.414;18.954;2023-07-31T13:00:51;4.70;;;1.40;;
64684;SDS011;51109;47.414;18.954;2023-07-31T13:03:17;5.70;;;1.50;;
64684;SDS011;51109;47.414;18.954;2023-07-31T13:05:43;2.78;;;1.17;;
64684;SDS011;51109;47.414;18.954;2023-07-31T13:08:09;4.88;;;1.50;;
64684;SDS011;51109;47.414;18.954;2023-07-31T13:10:35;3.60;;;2.00;;
64684;SDS011;51109;47.414;18.954;2023-07-31T13:13:00;4.90;;;1.50;;
64684;SDS011;51109;47.414;18.954;2023-07-31T13:15:26;1.60;;;1.17;;
64684;SDS011;51109;47.414;18.954;2023-07-31T13:17:52;3.53;;;1.55;;
64684;SDS011;51109;47.414;18.954;2023-07-31T13:20:18;3.42;;;2.00;;
64684;SDS011;51109;47.414;18.954;2023-07-31T13:22:44;1.42;;;1.20;;
64684;SDS011;51109;47.414;18.954;2023-07-31T13:25:10;4.47;;;1.40;;
64684;SDS011;51109;47.414;18.954;2023-07-31T13:27:36;2.63;;;1.50;;
64684;SDS011;51109;47.414;18.954;2023-07-31T13:30:02;2.10;;;1.33;;
64684;SDS011;51109;47.414;18.954;2023-07-31T13:32:29;3.13;;;1.20;;
64684;SDS011;51109;47.414;18.954;2023-07-31T13:34:55;2.10;;;1.40;;
64684;SDS011;51109;47.414;18.954;2023-07-31T13:37:21;3.67;;;1.40;;
64684;SDS011;51109;47.414;18.954;2023-07-31T13:39:47;2.85;;;1.40;;
64684;SDS011;51109;47.414;18.954;2023-07-31T13:42:12;3.25;;;1.48;;
64684;SDS011;51109;47.414;18.954;2023-07-31T13:44:38;4.97;;;1.85;;
64684;SDS011;51109;47.414;18.954;2023-07-31T13:47:05;1.65;;;1.40;;
64684;SDS011;51109;47.414;18.954;2023-07-31T13:49:31;3.17;;;1.63;;
64684;SDS011;51109;47.414;18.954;2023-07-31T13:51:58;3.78;;;1.80;;
64684;SDS011;51109;47.414;18.954;2023-07-31T13:54:24;2.78;;;1.40;;
64684;SDS011;51109;47.414;18.954;2023-07-31T13:56:51;2.63;;;1.30;;
64684;SDS011;51109;47.414;18.954;2023-07-31T13:59:18;2.55;;;1.30;;
64684;SDS011;51109;47.414;18.954;2023-07-31T14:01:44;3.20;;;1.60;;
64684;SDS011;51109;47.414;18.954;2023-07-31T14:04:10;2.05;;;1.60;;
64684;SDS011;51109;47.414;18.954;2023-07-31T14:06:37;2.58;;;1.35;;
64684;SDS011;51109;47.414;18.954;2023-07-31T14:09:03;2.80;;;1.63;;
64684;SDS011;51109;47.414;18.954;2023-07-31T14:11:30;2.08;;;1.40;;
64684;SDS011;51109;47.414;18.954;2023-07-31T14:13:57;1.73;;;1.33;;
64684;SDS011;51109;47.414;18.954;2023-07-31T14:16:23;2.08;;;1.40;;
64684;SDS011;51109;47.414;18.954;2023-07-31T14:18:49;1.95;;;1.27;;
64684;SDS011;51109;47.414;18.954;2023-07-31T14:21:15;2.17;;;1.55;;
64684;SDS011;51109;47.414;18.954;2023-07-31T14:23:41;2.55;;;1.20;;
64684;SDS011;51109;47.414;18.954;2023-07-31T14:26:07;3.60;;;1.80;;
64684;SDS011;51109;47.414;18.954;2023-07-31T14:28:33;4.20;;;1.85;;
64684;SDS011;51109;47.414;18.954;2023-07-31T14:30:59;4.93;;;1.70;;
64684;SDS011;51109;47.414;18.954;2023-07-31T14:33:25;3.67;;;1.40;;
64684;SDS011;51109;47.414;18.954;2023-07-31T14:35:51;4.45;;;1.52;;
64684;SDS011;51109;47.414;18.954;2023-07-31T14:38:17;3.92;;;1.80;;
64684;SDS011;51109;47.414;18.954;2023-07-31T14:40:43;2.83;;;1.75;;
64684;SDS011;51109;47.414;18.954;2023-07-31T14:43:09;3.97;;;1.73;;
64684;SDS011;51109;47.414;18.954;2023-07-31T14:45:35;1.70;;;1.40;;
64684;SDS011;51109;47.414;18.954;2023-07-31T14:48:01;2.58;;;1.58;;
64684;SDS011;51109;47.414;18.954;2023-07-31T14:50:28;11.15;;;2.22;;
64684;SDS011;51109;47.414;18.954;2023-07-31T14:52:54;3.03;;;1.33;;
64684;SDS011;51109;47.414;18.954;2023-07-31T14:55:20;2.90;;;1.55;;
64684;SDS011;51109;47.414;18.954;2023-07-31T14:57:46;2.75;;;1.42;;
64684;SDS011;51109;47.414;18.954;2023-07-31T15:00:12;2.88;;;1.67;;
64684;SDS011;51109;47.414;18.954;2023-07-31T15:02:38;2.20;;;1.50;;